createdAt,value
2022-11-27T00:00:11.820Z,-1.3
2022-11-27T00:03:12.794Z,-1.3
2022-11-27T00:06:11.742Z,-1.4
2022-11-27T00:09:11.694Z,-1.4
2022-11-27T00:12:11.755Z,-1.4
2022-11-27T00:15:17.385Z,-1.4
2022-11-27T00:18:11.764Z,-1.5
2022-11-27T00:21:11.755Z,-1.5
2022-11-27T00:24:11.765Z,-1.5
2022-11-27T00:27:11.750Z,-1.5
2022-11-27T00:30:11.772Z,0.4
2022-11-27T00:33:11.785Z,-1.5
2022-11-27T00:36:11.870Z,-1.5
2022-11-27T00:39:11.801Z,-1.4
2022-11-27T00:42:11.771Z,-1.4
2022-11-27T00:45:11.783Z,-1.4
2022-11-27T00:48:11.691Z,-1.4
2022-11-27T00:51:11.816Z,-1.4
2022-11-27T00:54:11.781Z,-1.4
2022-11-27T00:57:11.734Z,-1.4
2022-11-27T01:00:12.164Z,-1.4
2022-11-27T01:03:12.332Z,-1.4
2022-11-27T01:06:12.005Z,-1.5
2022-11-27T01:09:12.851Z,-1.5
2022-11-27T01:12:12.227Z,-1.5
2022-11-27T01:15:13.505Z,0.4
2022-11-27T01:18:11.747Z,-0.9
2022-11-27T01:21:12.911Z,-0.6
2022-11-27T01:24:17.544Z,-0.8
2022-11-27T01:27:12.085Z,-0.8
2022-11-27T01:30:13.374Z,-1
2022-11-27T01:33:11.759Z,-1
2022-11-27T01:36:11.778Z,-1.3
2022-11-27T01:39:11.911Z,-1.3
2022-11-27T01:42:11.927Z,-1.5
2022-11-27T01:45:12.660Z,0.4
2022-11-27T01:48:11.754Z,0.4
2022-11-27T01:51:11.983Z,0.2
2022-11-27T01:54:11.835Z,0.2
2022-11-27T01:57:11.888Z,0.1
2022-11-27T02:00:15.564Z,0.1
2022-11-27T02:03:12.351Z,0.1
2022-11-27T02:06:12.210Z,0.1
2022-11-27T02:09:11.733Z,0.1
2022-11-27T02:12:11.722Z,0.1
2022-11-27T02:15:11.772Z,0.1
2022-11-27T02:18:11.808Z,0.1
2022-11-27T02:21:11.839Z,0
2022-11-27T02:24:11.923Z,0
2022-11-27T02:27:11.827Z,-0.1
2022-11-27T02:30:12.060Z,-0.1
2022-11-27T02:33:11.760Z,-0.1
2022-11-27T02:36:11.811Z,0
2022-11-27T02:39:11.733Z,0.1
2022-11-27T02:42:12.299Z,0.2
2022-11-27T02:45:12.475Z,0.2
2022-11-27T02:48:11.919Z,0.1
2022-11-27T02:51:12.235Z,0
2022-11-27T02:54:11.944Z,0
2022-11-27T02:57:11.784Z,0
2022-11-27T03:00:11.826Z,-0.1
2022-11-27T03:03:12.597Z,-0.1
2022-11-27T03:06:11.751Z,-0.3
2022-11-27T03:09:11.846Z,-0.3
2022-11-27T03:12:11.933Z,-0.3
2022-11-27T03:15:12.908Z,-0.3
2022-11-27T03:18:11.785Z,-0.4
2022-11-27T03:21:11.690Z,-0.4
2022-11-27T03:24:11.832Z,-0.4
2022-11-27T03:27:11.842Z,-0.4
2022-11-27T03:30:11.889Z,-0.4
2022-11-27T03:33:11.865Z,-0.4
2022-11-27T03:36:11.756Z,-0.3
2022-11-27T03:39:11.730Z,-0.3
2022-11-27T03:42:11.732Z,-0.3
2022-11-27T03:45:11.767Z,-0.3
2022-11-27T03:48:12.011Z,-0.3
2022-11-27T03:51:11.729Z,-0.3
2022-11-27T03:54:11.819Z,-0.3
2022-11-27T03:57:11.700Z,-0.3
2022-11-27T04:00:11.754Z,-0.3
2022-11-27T04:03:11.736Z,-0.3
2022-11-27T04:06:11.801Z,-0.4
2022-11-27T04:09:11.752Z,-0.4
2022-11-27T04:12:11.771Z,-0.4
2022-11-27T04:15:11.748Z,-0.4
2022-11-27T04:18:11.750Z,-0.4
2022-11-27T04:21:11.766Z,-0.3
2022-11-27T04:24:11.746Z,-0.3
2022-11-27T04:27:11.856Z,-0.3
2022-11-27T04:30:11.756Z,-0.3
2022-11-27T04:33:11.719Z,-0.3
2022-11-27T04:36:11.737Z,-0.4
2022-11-27T04:39:11.696Z,-0.4
2022-11-27T04:42:11.714Z,-0.5
2022-11-27T04:45:11.777Z,-0.5
2022-11-27T04:48:11.687Z,-0.5
2022-11-27T04:51:11.732Z,-0.3
2022-11-27T04:54:11.760Z,-0.3
2022-11-27T04:57:11.738Z,-0.3
2022-11-27T05:00:11.861Z,-0.3
2022-11-27T05:03:12.693Z,-0.3
2022-11-27T05:06:11.783Z,-0.3
2022-11-27T05:09:11.751Z,-0.3
2022-11-27T05:12:11.734Z,-0.4
2022-11-27T05:15:15.919Z,-0.4
2022-11-27T05:18:11.862Z,-0.4
2022-11-27T05:21:11.737Z,-0.5
2022-11-27T05:24:11.888Z,-0.5
2022-11-27T05:27:11.671Z,-0.5
2022-11-27T05:30:11.759Z,-0.5
2022-11-27T05:33:11.776Z,-0.6
2022-11-27T05:36:11.751Z,-0.6
2022-11-27T05:39:11.699Z,-0.6
2022-11-27T05:42:11.824Z,-0.6
2022-11-27T05:45:11.816Z,-0.6
2022-11-27T05:48:11.766Z,-0.6
2022-11-27T05:51:11.700Z,-0.6
2022-11-27T05:54:11.759Z,-0.5
2022-11-27T05:57:11.739Z,-0.5
2022-11-27T06:00:11.854Z,-0.4
2022-11-27T06:03:12.555Z,-0.4
2022-11-27T06:06:11.742Z,-0.4
2022-11-27T06:09:19.921Z,-0.4
2022-11-27T06:12:11.822Z,-0.3
2022-11-27T06:15:11.731Z,-0.3
2022-11-27T06:18:11.766Z,-0.3
2022-11-27T06:21:11.751Z,-0.3
2022-11-27T06:24:11.682Z,-0.3
2022-11-27T06:27:11.812Z,-0.3
2022-11-27T06:30:11.733Z,-0.3
2022-11-27T06:33:11.755Z,-0.3
2022-11-27T06:36:11.770Z,-0.1
2022-11-27T06:39:11.724Z,-0.1
2022-11-27T06:42:11.714Z,-0.1
2022-11-27T06:45:11.700Z,-0.1
2022-11-27T06:48:11.999Z,-0.1
2022-11-27T06:51:11.753Z,-0.1
2022-11-27T06:54:11.741Z,-0.1
2022-11-27T06:57:11.790Z,-0.1
2022-11-27T07:00:12.025Z,-0.1
2022-11-27T07:03:11.797Z,-0.1
2022-11-27T07:06:11.783Z,0
2022-11-27T07:09:11.766Z,0
2022-11-27T07:12:11.790Z,0
2022-11-27T07:15:15.728Z,0
2022-11-27T07:18:11.786Z,0
2022-11-27T07:21:11.809Z,0
2022-11-27T07:24:11.848Z,0.1
2022-11-27T07:27:11.871Z,0.1
2022-11-27T07:30:11.830Z,0.2
2022-11-27T07:33:11.825Z,0.2
2022-11-27T07:36:11.778Z,0.4
2022-11-27T07:39:11.792Z,-1.5
2022-11-27T07:42:49.010Z,-1.5
2022-11-27T07:45:11.876Z,-1.4
2022-11-27T07:48:11.786Z,-1.3
2022-11-27T07:51:11.745Z,-1.1
2022-11-27T07:54:11.816Z,-0.9
2022-11-27T07:57:11.772Z,-0.8
2022-11-27T08:00:11.897Z,-0.4
2022-11-27T08:03:11.795Z,-0.1
2022-11-27T08:06:11.865Z,0.1
2022-11-27T08:09:11.798Z,0.5
2022-11-27T08:12:11.858Z,0.9
2022-11-27T08:15:11.806Z,1.1
2022-11-27T08:18:11.883Z,1.4
2022-11-27T08:21:11.807Z,1.6
2022-11-27T08:24:11.757Z,1.8
2022-11-27T08:27:11.778Z,1.8
2022-11-27T08:30:11.971Z,1.8
2022-11-27T08:33:11.824Z,1.8
2022-11-27T08:36:20.665Z,1.8
2022-11-27T08:39:11.765Z,1.8
2022-11-27T08:42:11.768Z,1.9
2022-11-27T08:45:11.921Z,3.1
2022-11-27T08:48:11.748Z,4.1
2022-11-27T08:51:11.829Z,4
2022-11-27T08:54:11.831Z,4.2
2022-11-27T08:57:11.734Z,5.4
2022-11-27T09:00:11.895Z,6.5
2022-11-27T09:03:11.759Z,7.2
2022-11-27T09:06:11.767Z,8.3
2022-11-27T09:09:11.830Z,7
2022-11-27T09:12:11.813Z,6.5
2022-11-27T09:15:11.830Z,5.7
2022-11-27T09:18:11.836Z,6
2022-11-27T09:21:11.713Z,6.1
2022-11-27T09:24:11.808Z,7.1
2022-11-27T09:27:11.730Z,6.6
2022-11-27T09:30:11.903Z,6.5
2022-11-27T09:33:11.775Z,7
2022-11-27T09:36:11.752Z,7.6
2022-11-27T09:39:11.734Z,8.1
2022-11-27T09:42:11.733Z,9.9
2022-11-27T09:45:11.847Z,10.8
2022-11-27T09:48:11.803Z,11
2022-11-27T09:51:11.830Z,10.1
2022-11-27T09:54:11.876Z,9.4
2022-11-27T09:57:11.833Z,9.9
2022-11-27T10:00:11.870Z,9.9
2022-11-27T10:03:13.170Z,10.6
2022-11-27T10:06:11.821Z,12.4
2022-11-27T10:09:11.828Z,14.6
2022-11-27T10:12:11.828Z,14.9
2022-11-27T10:15:11.806Z,14.1
2022-11-27T10:18:11.954Z,14.4
2022-11-27T10:21:11.862Z,14.9
2022-11-27T10:24:11.856Z,13
2022-11-27T10:27:11.834Z,14.7
2022-11-27T10:30:11.957Z,16.5
2022-11-27T10:33:12.087Z,17.6
2022-11-27T10:36:11.767Z,17.9
2022-11-27T10:39:11.817Z,17.6
2022-11-27T10:42:11.754Z,18.3
2022-11-27T10:45:11.740Z,18.1
2022-11-27T10:48:11.805Z,18.5
2022-11-27T10:51:11.763Z,18.4
2022-11-27T10:54:11.716Z,16.9
2022-11-27T10:57:11.744Z,15.4
2022-11-27T11:00:11.773Z,14.3
2022-11-27T11:03:11.846Z,13.4
2022-11-27T11:06:34.610Z,12.5
2022-11-27T11:09:12.775Z,12
2022-11-27T11:12:11.785Z,11.4
2022-11-27T11:15:11.922Z,11
2022-11-27T11:18:11.903Z,10.6
2022-11-27T11:21:11.756Z,10.4
2022-11-27T11:24:11.774Z,10.3
2022-11-27T11:27:11.760Z,10.1
2022-11-27T11:30:11.872Z,10
2022-11-27T11:33:11.774Z,9.9
2022-11-27T11:36:11.839Z,9.8
2022-11-27T11:39:11.750Z,9.9
2022-11-27T11:42:11.748Z,9.9
2022-11-27T11:45:11.812Z,9.9
2022-11-27T11:48:11.829Z,10
2022-11-27T11:51:12.502Z,10
2022-11-27T11:54:11.813Z,10.1
2022-11-27T11:57:11.856Z,10.3
2022-11-27T12:00:11.950Z,10.5
2022-11-27T12:03:11.789Z,10.9
2022-11-27T12:06:11.790Z,11.1
2022-11-27T12:09:11.858Z,11.4
2022-11-27T12:12:11.751Z,11.5
2022-11-27T12:15:11.804Z,11.5
2022-11-27T12:18:11.946Z,11.5
2022-11-27T12:21:11.729Z,11.6
2022-11-27T12:24:11.884Z,11.8
2022-11-27T12:27:11.775Z,11.8
2022-11-27T12:30:11.882Z,11.5
2022-11-27T12:33:11.792Z,11.4
2022-11-27T12:36:11.831Z,11
2022-11-27T12:39:11.751Z,10.8
2022-11-27T12:42:11.857Z,10.5
2022-11-27T12:45:11.697Z,10.4
2022-11-27T12:48:12.009Z,10.3
2022-11-27T12:51:11.787Z,10.3
2022-11-27T12:54:11.843Z,10.3
2022-11-27T12:57:11.749Z,10.5
2022-11-27T13:00:11.827Z,10.8
2022-11-27T13:03:12.030Z,10.8
2022-11-27T13:06:11.808Z,10.6
2022-11-27T13:09:11.703Z,10.5
2022-11-27T13:12:11.808Z,10.4
2022-11-27T13:15:11.945Z,10.3
2022-11-27T13:18:11.821Z,10.1
2022-11-27T13:21:11.852Z,10.1
2022-11-27T13:24:11.759Z,10
2022-11-27T13:27:11.799Z,9.9
2022-11-27T13:30:11.973Z,9.9
2022-11-27T13:33:11.790Z,9.8
2022-11-27T13:36:11.801Z,9.6
2022-11-27T13:39:11.851Z,9.5
2022-11-27T13:42:11.783Z,9.3
2022-11-27T13:45:11.817Z,9.1
2022-11-27T13:48:11.914Z,9
2022-11-27T13:51:11.797Z,8.9
2022-11-27T13:54:11.775Z,8.8
2022-11-27T13:57:11.725Z,8.6
2022-11-27T14:00:11.833Z,8.5
2022-11-27T14:03:11.909Z,8.5
2022-11-27T14:06:11.776Z,8.4
2022-11-27T14:09:11.771Z,8.4
2022-11-27T14:12:11.836Z,8.4
2022-11-27T14:15:11.912Z,8.3
2022-11-27T14:18:11.808Z,8.1
2022-11-27T14:21:11.751Z,8.1
2022-11-27T14:24:11.829Z,8
2022-11-27T14:27:11.804Z,7.9
2022-11-27T14:30:11.920Z,7.7
2022-11-27T14:33:11.778Z,7.6
2022-11-27T14:36:11.822Z,7.4
2022-11-27T14:39:11.812Z,7.2
2022-11-27T14:42:11.857Z,7.1
2022-11-27T14:45:11.849Z,7.1
2022-11-27T14:48:11.828Z,7
2022-11-27T14:51:11.680Z,6.9
2022-11-27T14:54:11.820Z,6.7
2022-11-27T14:57:11.783Z,6.7
2022-11-27T15:00:11.966Z,6.6
2022-11-27T15:03:13.131Z,6.5
2022-11-27T15:06:11.854Z,6.5
2022-11-27T15:09:43.603Z,6.4
2022-11-27T15:12:11.776Z,6.4
2022-11-27T15:15:11.732Z,6.2
2022-11-27T15:18:11.848Z,6.2
2022-11-27T15:21:11.716Z,6.2
2022-11-27T15:24:11.781Z,6.1
2022-11-27T15:27:11.759Z,6.1
2022-11-27T15:30:12.441Z,6
2022-11-27T15:33:11.761Z,6
2022-11-27T15:36:11.717Z,6
2022-11-27T15:39:11.686Z,5.9
2022-11-27T15:42:11.771Z,5.9
2022-11-27T15:45:11.756Z,5.7
2022-11-27T15:48:11.707Z,5.7
2022-11-27T15:51:11.774Z,5.6
2022-11-27T15:54:11.707Z,5.6
2022-11-27T15:57:11.773Z,5.5
2022-11-27T16:00:11.920Z,5.5
2022-11-27T16:03:11.691Z,5.5
2022-11-27T16:06:11.767Z,5.5
2022-11-27T16:09:11.745Z,5.5
2022-11-27T16:12:11.737Z,5.5
2022-11-27T16:15:11.805Z,5.5
2022-11-27T16:18:11.723Z,5.5
2022-11-27T16:21:11.726Z,5.5
2022-11-27T16:24:11.782Z,5.5
2022-11-27T16:27:11.726Z,5.5
2022-11-27T16:30:11.864Z,5.5
2022-11-27T16:33:11.764Z,5.5
2022-11-27T16:36:11.785Z,5.5
2022-11-27T16:39:11.814Z,5.5
2022-11-27T16:42:12.043Z,5.5
2022-11-27T16:45:11.740Z,5.4
2022-11-27T16:48:11.763Z,5.4
2022-11-27T16:51:11.760Z,5.4
2022-11-27T16:54:11.813Z,5.4
2022-11-27T16:57:11.816Z,5.2
2022-11-27T17:00:11.943Z,5.2
2022-11-27T17:03:11.693Z,5.1
2022-11-27T17:06:11.803Z,5.1
2022-11-27T17:09:11.792Z,5
2022-11-27T17:12:11.784Z,5
2022-11-27T17:15:11.716Z,4.9
2022-11-27T17:18:11.705Z,4.9
2022-11-27T17:21:11.771Z,4.9
2022-11-27T17:24:19.957Z,4.9
2022-11-27T17:27:11.851Z,4.9
2022-11-27T17:30:11.713Z,4.9
2022-11-27T17:33:11.783Z,4.7
2022-11-27T17:36:11.758Z,4.7
2022-11-27T17:39:11.763Z,4.7
2022-11-27T17:42:24.836Z,4.7
2022-11-27T17:45:11.739Z,4.7
2022-11-27T17:48:11.804Z,4.7
2022-11-27T17:51:11.723Z,4.7
2022-11-27T17:54:11.741Z,4.7
2022-11-27T17:57:11.685Z,4.7
2022-11-27T18:00:11.770Z,4.7
2022-11-27T18:03:18.387Z,4.6
2022-11-27T18:06:11.859Z,4.6
2022-11-27T18:09:11.716Z,4.7
2022-11-27T18:12:11.788Z,4.6
2022-11-27T18:15:12.755Z,4.7
2022-11-27T18:18:11.691Z,4.7
2022-11-27T18:21:20.886Z,4.7
2022-11-27T18:24:36.076Z,4.7
2022-11-27T18:27:20.192Z,4.9
2022-11-27T18:30:11.818Z,4.9
2022-11-27T18:33:11.725Z,4.9
2022-11-27T18:36:12.536Z,5
2022-11-27T18:39:11.727Z,5
2022-11-27T18:42:11.937Z,5
2022-11-27T18:45:37.989Z,5
2022-11-27T18:48:11.816Z,5
2022-11-27T18:51:12.022Z,5
2022-11-27T18:54:11.757Z,5
2022-11-27T18:57:11.740Z,5
2022-11-27T19:00:11.869Z,5
2022-11-27T19:03:11.975Z,5
2022-11-27T19:06:11.727Z,5
2022-11-27T19:09:11.878Z,5
2022-11-27T19:12:11.739Z,4.9
2022-11-27T19:15:11.795Z,4.9
2022-11-27T19:18:11.879Z,4.9
2022-11-27T19:21:11.727Z,4.9
2022-11-27T19:24:11.788Z,4.9
2022-11-27T19:27:11.726Z,4.9
2022-11-27T19:30:11.671Z,4.9
2022-11-27T19:33:11.738Z,4.9
2022-11-27T19:36:11.725Z,4.9
2022-11-27T19:39:11.751Z,4.9
2022-11-27T19:42:11.804Z,4.9
2022-11-27T19:45:11.681Z,4.9
2022-11-27T19:48:11.722Z,4.9
2022-11-27T19:51:11.817Z,5
2022-11-27T19:54:20.629Z,5
2022-11-27T19:57:11.708Z,5
2022-11-27T20:00:11.780Z,5
2022-11-27T20:03:11.686Z,5
2022-11-27T20:06:11.760Z,5.1
2022-11-27T20:09:11.778Z,5.1
2022-11-27T20:12:11.751Z,5.1
2022-11-27T20:15:11.842Z,5.2
2022-11-27T20:18:11.892Z,5.2
2022-11-27T20:21:11.734Z,5.2
2022-11-27T20:24:11.806Z,5.2
2022-11-27T20:27:11.694Z,5.2
2022-11-27T20:30:11.813Z,5.2
2022-11-27T20:33:18.980Z,5.2
2022-11-27T20:36:11.748Z,5.2
2022-11-27T20:39:15.140Z,5.2
2022-11-27T20:42:11.738Z,5.4
2022-11-27T20:45:14.063Z,5.2
2022-11-27T20:48:11.733Z,5.4
2022-11-27T20:51:11.711Z,5.4
2022-11-27T20:54:11.751Z,5.4
2022-11-27T20:57:11.735Z,5.4
2022-11-27T21:00:12.028Z,5.4
2022-11-27T21:03:11.622Z,5.4
2022-11-27T21:06:11.772Z,5.4
2022-11-27T21:09:11.712Z,5.4
2022-11-27T21:12:11.753Z,5.4
2022-11-27T21:15:11.778Z,5.4
2022-11-27T21:18:11.748Z,5.4
2022-11-27T21:21:11.713Z,5.4
2022-11-27T21:24:11.694Z,5.4
2022-11-27T21:27:12.349Z,5.4
2022-11-27T21:30:11.791Z,5.5
2022-11-27T21:33:11.723Z,5.5
2022-11-27T21:36:11.883Z,5.5
2022-11-27T21:39:11.750Z,5.5
2022-11-27T21:42:11.737Z,5.5
2022-11-27T21:45:12.039Z,5.5
2022-11-27T21:48:18.883Z,5.5
2022-11-27T21:51:11.847Z,5.5
2022-11-27T21:54:11.777Z,5.5
2022-11-27T21:57:11.748Z,5.5
2022-11-27T22:00:12.019Z,5.5
2022-11-27T22:03:11.784Z,5.5
2022-11-27T22:06:11.699Z,5.5
2022-11-27T22:09:19.486Z,5.5
2022-11-27T22:12:11.784Z,5.5
2022-11-27T22:15:11.718Z,5.5
2022-11-27T22:18:11.720Z,5.5
2022-11-27T22:21:11.773Z,5.5
2022-11-27T22:24:19.575Z,5.5
2022-11-27T22:27:11.726Z,5.4
2022-11-27T22:30:11.769Z,5.4
2022-11-27T22:33:11.731Z,5.4
2022-11-27T22:36:11.765Z,5.4
2022-11-27T22:39:11.836Z,5.4
2022-11-27T22:42:11.800Z,5.4
2022-11-27T22:45:11.748Z,5.4
2022-11-27T22:48:11.771Z,5.4
2022-11-27T22:51:11.694Z,5.4
2022-11-27T22:54:11.802Z,5.2
2022-11-27T22:57:11.719Z,5.2
2022-11-27T23:00:12.934Z,5.2
2022-11-27T23:03:12.633Z,5.2
2022-11-27T23:06:11.778Z,5.2
2022-11-27T23:09:11.834Z,5.2
2022-11-27T23:12:11.751Z,5.2
2022-11-27T23:15:12.304Z,5.2
2022-11-27T23:18:11.712Z,5.4
2022-11-27T23:21:11.745Z,5.4
2022-11-27T23:24:11.803Z,5.2
2022-11-27T23:27:11.765Z,5.2
2022-11-27T23:30:11.859Z,5.2
2022-11-27T23:33:11.783Z,5.2
2022-11-27T23:36:11.773Z,5.2
2022-11-27T23:39:11.750Z,5.2
2022-11-27T23:42:11.813Z,5.2
2022-11-27T23:45:11.762Z,5.2
2022-11-27T23:48:11.744Z,5.2
2022-11-27T23:51:11.769Z,5.2
2022-11-27T23:54:11.750Z,5.2
2022-11-27T23:57:11.724Z,5.2
